sensor_id;sensor_type;location;lat;lon;timestamp;temperature;humidity
16995;DHT22;8614;48.522;9.206;2022-11-15T03:00:44;5.70;99.90
16995;DHT22;8614;48.522;9.206;2022-11-15T03:03:54;5.70;99.90
16995;DHT22;8614;48.522;9.206;2022-11-15T03:06:45;5.70;99.90
16995;DHT22;8614;48.522;9.206;2022-11-15T03:09:35;5.60;99.90
16995;DHT22;8614;48.522;9.206;2022-11-15T03:12:25;5.60;99.90
16995;DHT22;8614;48.522;9.206;2022-11-15T03:15:20;5.50;99.90
16995;DHT22;8614;48.522;9.206;2022-11-15T03:18:15;5.40;99.90
16995;DHT22;8614;48.522;9.206;2022-11-15T03:21:05;5.40;99.90
16995;DHT22;8614;48.522;9.206;2022-11-15T03:23:51;5.40;99.90
16995;DHT22;8614;48.522;9.206;2022-11-15T03:26:40;5.40;99.90
16995;DHT22;8614;48.522;9.206;2022-11-15T03:29:27;5.40;99.90
16995;DHT22;8614;48.522;9.206;2022-11-15T03:32:17;5.50;99.90
16995;DHT22;8614;48.522;9.206;2022-11-15T03:35:08;5.60;99.90
16995;DHT22;8614;48.522;9.206;2022-11-15T03:37:57;5.60;99.90
16995;DHT22;8614;48.522;9.206;2022-11-15T03:40:49;5.60;99.90
16995;DHT22;8614;48.522;9.206;2022-11-15T03:43:43;5.60;99.90
16995;DHT22;8614;48.522;9.206;2022-11-15T03:46:33;5.60;99.90
16995;DHT22;8614;48.522;9.206;2022-11-15T03:49:25;5.60;99.90
16995;DHT22;8614;48.522;9.206;2022-11-15T03:52:17;5.60;99.90
16995;DHT22;8614;48.522;9.206;2022-11-15T03:55:05;5.50;99.90
16995;DHT22;8614;48.522;9.206;2022-11-15T03:57:54;5.50;99.90
16995;DHT22;8614;48.522;9.206;2022-11-15T04:00:41;5.40;99.90
16995;DHT22;8614;48.522;9.206;2022-11-15T04:03:26;5.40;99.90
16995;DHT22;8614;48.522;9.206;2022-11-15T04:06:12;5.30;99.90
16995;DHT22;8614;48.522;9.206;2022-11-15T04:08:59;5.30;99.90
16995;DHT22;8614;48.522;9.206;2022-11-15T04:11:44;5.30;99.90
16995;DHT22;8614;48.522;9.206;2022-11-15T04:14:30;5.20;99.90
16995;DHT22;8614;48.522;9.206;2022-11-15T04:17:16;5.20;99.90
16995;DHT22;8614;48.522;9.206;2022-11-15T04:20:02;5.20;99.90
16995;DHT22;8614;48.522;9.206;2022-11-15T04:23:08;5.10;99.90
16995;DHT22;8614;48.522;9.206;2022-11-15T04:26:17;5.10;99.90
16995;DHT22;8614;48.522;9.206;2022-11-15T04:29:03;5.10;99.90
16995;DHT22;8614;48.522;9.206;2022-11-15T04:32:07;5.00;99.90
16995;DHT22;8614;48.522;9.206;2022-11-15T04:34:52;4.90;99.90
16995;DHT22;8614;48.522;9.206;2022-11-15T04:37:38;4.90;99.90
16995;DHT22;8614;48.522;9.206;2022-11-15T04:40:23;4.90;99.90
16995;DHT22;8614;48.522;9.206;2022-11-15T04:43:10;4.90;99.90
16995;DHT22;8614;48.522;9.206;2022-11-15T04:45:56;4.90;99.90
16995;DHT22;8614;48.522;9.206;2022-11-15T04:48:41;5.00;99.90
16995;DHT22;8614;48.522;9.206;2022-11-15T04:51:27;4.90;99.90
16995;DHT22;8614;48.522;9.206;2022-11-15T04:54:12;5.00;99.90
16995;DHT22;8614;48.522;9.206;2022-11-15T04:56:58;5.00;99.90
16995;DHT22;8614;48.522;9.206;2022-11-15T04:59:45;4.90;99.90
16995;DHT22;8614;48.522;9.206;2022-11-15T05:02:31;4.90;99.90
16995;DHT22;8614;48.522;9.206;2022-11-15T05:05:30;4.90;99.90
16995;DHT22;8614;48.522;9.206;2022-11-15T05:08:16;4.80;99.90
16995;DHT22;8614;48.522;9.206;2022-11-15T05:11:01;4.80;99.90
16995;DHT22;8614;48.522;9.206;2022-11-15T05:13:47;4.80;99.90
16995;DHT22;8614;48.522;9.206;2022-11-15T05:16:34;4.80;99.90
16995;DHT22;8614;48.522;9.206;2022-11-15T05:19:19;4.90;99.90
16995;DHT22;8614;48.522;9.206;2022-11-15T05:22:05;5.00;99.90
16995;DHT22;8614;48.522;9.206;2022-11-15T05:24:51;5.00;99.90
16995;DHT22;8614;48.522;9.206;2022-11-15T05:27:36;5.00;99.90
16995;DHT22;8614;48.522;9.206;2022-11-15T05:30:22;5.00;99.90
16995;DHT22;8614;48.522;9.206;2022-11-15T05:33:09;5.20;99.90
16995;DHT22;8614;48.522;9.206;2022-11-15T05:35:57;5.20;99.90
16995;DHT22;8614;48.522;9.206;2022-11-15T05:38:45;5.30;99.90
16995;DHT22;8614;48.522;9.206;2022-11-15T05:41:33;5.30;99.90
16995;DHT22;8614;48.522;9.206;2022-11-15T05:44:21;5.40;99.90
16995;DHT22;8614;48.522;9.206;2022-11-15T05:47:08;5.40;99.90
16995;DHT22;8614;48.522;9.206;2022-11-15T05:49:57;5.40;99.90
16995;DHT22;8614;48.522;9.206;2022-11-15T05:52:43;5.40;99.90
16995;DHT22;8614;48.522;9.206;2022-11-15T05:55:28;5.40;99.90
16995;DHT22;8614;48.522;9.206;2022-11-15T05:58:14;5.40;99.90
16995;DHT22;8614;48.522;9.206;2022-11-15T06:01:00;5.40;99.90
16995;DHT22;8614;48.522;9.206;2022-11-15T06:03:45;5.30;99.90
16995;DHT22;8614;48.522;9.206;2022-11-15T06:06:32;5.30;99.90
16995;DHT22;8614;48.522;9.206;2022-11-15T06:09:18;5.30;99.90
16995;DHT22;8614;48.522;9.206;2022-11-15T06:12:03;5.20;99.90
16995;DHT22;8614;48.522;9.206;2022-11-15T06:14:49;5.20;99.90
16995;DHT22;8614;48.522;9.206;2022-11-15T06:17:34;5.10;99.90
16995;DHT22;8614;48.522;9.206;2022-11-15T06:20:20;5.10;99.90
16995;DHT22;8614;48.522;9.206;2022-11-15T06:23:07;5.10;99.90
16995;DHT22;8614;48.522;9.206;2022-11-15T06:25:52;5.10;99.90
16995;DHT22;8614;48.522;9.206;2022-11-15T06:28:38;5.10;99.90
16995;DHT22;8614;48.522;9.206;2022-11-15T06:31:23;5.10;99.90
16995;DHT22;8614;48.522;9.206;2022-11-15T06:34:09;5.10;99.90
16995;DHT22;8614;48.522;9.206;2022-11-15T06:36:54;5.10;99.90
16995;DHT22;8614;48.522;9.206;2022-11-15T06:39:41;5.10;99.90
16995;DHT22;8614;48.522;9.206;2022-11-15T06:42:27;5.20;99.90
16995;DHT22;8614;48.522;9.206;2022-11-15T06:45:12;5.20;99.90
16995;DHT22;8614;48.522;9.206;2022-11-15T06:47:58;5.30;99.90
16995;DHT22;8614;48.522;9.206;2022-11-15T06:50:50;5.30;99.90
16995;DHT22;8614;48.522;9.206;2022-11-15T06:53:36;5.40;99.90
16995;DHT22;8614;48.522;9.206;2022-11-15T06:56:22;5.50;99.90
16995;DHT22;8614;48.522;9.206;2022-11-15T06:59:08;5.60;99.90
16995;DHT22;8614;48.522;9.206;2022-11-15T07:01:53;5.70;99.90
16995;DHT22;8614;48.522;9.206;2022-11-15T07:04:39;5.70;99.90
16995;DHT22;8614;48.522;9.206;2022-11-15T07:07:25;5.80;99.90
16995;DHT22;8614;48.522;9.206;2022-11-15T07:10:10;5.90;99.90
16995;DHT22;8614;48.522;9.206;2022-11-15T07:12:57;5.90;99.90
16995;DHT22;8614;48.522;9.206;2022-11-15T07:15:42;6.00;99.90
16995;DHT22;8614;48.522;9.206;2022-11-15T07:18:28;6.10;99.90
16995;DHT22;8614;48.522;9.206;2022-11-15T07:21:14;6.20;99.90
16995;DHT22;8614;48.522;9.206;2022-11-15T07:23:59;6.30;99.90
16995;DHT22;8614;48.522;9.206;2022-11-15T07:26:45;6.50;99.90
16995;DHT22;8614;48.522;9.206;2022-11-15T07:29:32;6.60;99.90
16995;DHT22;8614;48.522;9.206;2022-11-15T07:32:17;6.70;99.90
16995;DHT22;8614;48.522;9.206;2022-11-15T07:35:03;6.80;99.90
16995;DHT22;8614;48.522;9.206;2022-11-15T07:37:56;7.00;99.90
16995;DHT22;8614;48.522;9.206;2022-11-15T07:40:42;7.00;99.90
16995;DHT22;8614;48.522;9.206;2022-11-15T07:43:28;7.10;99.90
16995;DHT22;8614;48.522;9.206;2022-11-15T07:46:15;7.20;99.90
16995;DHT22;8614;48.522;9.206;2022-11-15T07:49:00;7.30;99.90
16995;DHT22;8614;48.522;9.206;2022-11-15T07:51:46;7.50;99.90
16995;DHT22;8614;48.522;9.206;2022-11-15T07:54:31;7.80;99.90
16995;DHT22;8614;48.522;9.206;2022-11-15T07:57:17;8.00;99.90
16995;DHT22;8614;48.522;9.206;2022-11-15T08:00:04;8.30;99.90
16995;DHT22;8614;48.522;9.206;2022-11-15T08:02:51;8.50;99.90
16995;DHT22;8614;48.522;9.206;2022-11-15T08:05:38;8.60;99.90
16995;DHT22;8614;48.522;9.206;2022-11-15T08:08:25;8.60;99.90
16995;DHT22;8614;48.522;9.206;2022-11-15T08:11:10;8.60;99.90
16995;DHT22;8614;48.522;9.206;2022-11-15T08:13:56;8.60;99.90
16995;DHT22;8614;48.522;9.206;2022-11-15T08:16:41;8.60;99.90
16995;DHT22;8614;48.522;9.206;2022-11-15T08:19:28;8.70;99.90
16995;DHT22;8614;48.522;9.206;2022-11-15T08:22:14;8.70;99.90
16995;DHT22;8614;48.522;9.206;2022-11-15T08:24:59;8.70;99.90
16995;DHT22;8614;48.522;9.206;2022-11-15T08:27:46;8.60;99.90
16995;DHT22;8614;48.522;9.206;2022-11-15T08:30:35;8.70;99.90
16995;DHT22;8614;48.522;9.206;2022-11-15T08:33:21;8.60;99.90
16995;DHT22;8614;48.522;9.206;2022-11-15T08:36:12;8.60;99.90
16995;DHT22;8614;48.522;9.206;2022-11-15T08:38:58;8.60;99.90
16995;DHT22;8614;48.522;9.206;2022-11-15T08:41:43;8.80;99.90
16995;DHT22;8614;48.522;9.206;2022-11-15T08:44:29;8.80;99.90
16995;DHT22;8614;48.522;9.206;2022-11-15T08:47:15;8.90;99.90
16995;DHT22;8614;48.522;9.206;2022-11-15T08:50:00;9.00;99.90
16995;DHT22;8614;48.522;9.206;2022-11-15T08:52:47;9.00;99.90
16995;DHT22;8614;48.522;9.206;2022-11-15T08:55:36;9.10;99.90
16995;DHT22;8614;48.522;9.206;2022-11-15T08:58:21;9.10;99.90
16995;DHT22;8614;48.522;9.206;2022-11-15T09:01:15;9.30;99.90
16995;DHT22;8614;48.522;9.206;2022-11-15T09:04:01;9.30;99.90
16995;DHT22;8614;48.522;9.206;2022-11-15T09:06:48;9.40;99.90
16995;DHT22;8614;48.522;9.206;2022-11-15T09:09:35;9.60;99.90
16995;DHT22;8614;48.522;9.206;2022-11-15T09:12:20;9.70;99.90
16995;DHT22;8614;48.522;9.206;2022-11-15T09:15:07;9.80;99.90
16995;DHT22;8614;48.522;9.206;2022-11-15T09:17:53;9.90;99.90
16995;DHT22;8614;48.522;9.206;2022-11-15T09:20:38;10.00;99.90
16995;DHT22;8614;48.522;9.206;2022-11-15T09:23:24;10.10;99.90
16995;DHT22;8614;48.522;9.206;2022-11-15T09:26:12;10.20;99.90
16995;DHT22;8614;48.522;9.206;2022-11-15T09:28:57;10.30;99.90
16995;DHT22;8614;48.522;9.206;2022-11-15T09:31:43;10.40;99.90
16995;DHT22;8614;48.522;9.206;2022-11-15T09:34:29;10.50;99.90
16995;DHT22;8614;48.522;9.206;2022-11-15T09:37:14;10.50;99.90
16995;DHT22;8614;48.522;9.206;2022-11-15T09:40:00;10.50;99.90
16995;DHT22;8614;48.522;9.206;2022-11-15T09:42:56;10.50;99.90
16995;DHT22;8614;48.522;9.206;2022-11-15T09:45:54;10.60;99.90
16995;DHT22;8614;48.522;9.206;2022-11-15T09:48:51;10.70;99.90
16995;DHT22;8614;48.522;9.206;2022-11-15T09:51:43;10.80;99.90
16995;DHT22;8614;48.522;9.206;2022-11-15T09:54:23;11.00;99.90
16995;DHT22;8614;48.522;9.206;2022-11-15T09:56:53;11.20;99.90
16995;DHT22;8614;48.522;9.206;2022-11-15T10:02:33;11.50;99.90
16995;DHT22;8614;48.522;9.206;2022-11-15T10:05:04;11.60;99.90
16995;DHT22;8614;48.522;9.206;2022-11-15T10:07:35;11.70;99.90
16995;DHT22;8614;48.522;9.206;2022-11-15T10:10:13;11.80;99.90
16995;DHT22;8614;48.522;9.206;2022-11-15T10:12:45;11.90;99.90
16995;DHT22;8614;48.522;9.206;2022-11-15T10:15:18;11.90;99.90
16995;DHT22;8614;48.522;9.206;2022-11-15T10:18:12;11.90;99.90
16995;DHT22;8614;48.522;9.206;2022-11-15T10:20:48;11.90;99.90
16995;DHT22;8614;48.522;9.206;2022-11-15T10:23:18;11.80;99.90
16995;DHT22;8614;48.522;9.206;2022-11-15T10:25:45;11.80;99.90
16995;DHT22;8614;48.522;9.206;2022-11-15T10:28:15;12.00;99.90
16995;DHT22;8614;48.522;9.206;2022-11-15T10:30:45;12.10;99.90
16995;DHT22;8614;48.522;9.206;2022-11-15T10:33:30;12.20;99.90
16995;DHT22;8614;48.522;9.206;2022-11-15T10:36:21;12.30;99.90
16995;DHT22;8614;48.522;9.206;2022-11-15T10:38:55;12.30;99.90
16995;DHT22;8614;48.522;9.206;2022-11-15T10:41:29;12.50;99.90
16995;DHT22;8614;48.522;9.206;2022-11-15T10:44:21;12.50;99.90
16995;DHT22;8614;48.522;9.206;2022-11-15T10:47:06;12.60;99.90
16995;DHT22;8614;48.522;9.206;2022-11-15T10:49:54;12.60;99.90
16995;DHT22;8614;48.522;9.206;2022-11-15T10:52:21;12.50;99.90
16995;DHT22;8614;48.522;9.206;2022-11-15T10:54:50;12.50;99.90
16995;DHT22;8614;48.522;9.206;2022-11-15T10:57:20;12.50;99.90
16995;DHT22;8614;48.522;9.206;2022-11-15T10:59:50;12.50;99.90
16995;DHT22;8614;48.522;9.206;2022-11-15T11:02:31;12.50;99.90
16995;DHT22;8614;48.522;9.206;2022-11-15T11:04:59;12.60;99.90
16995;DHT22;8614;48.522;9.206;2022-11-15T11:07:28;12.60;99.90
16995;DHT22;8614;48.522;9.206;2022-11-15T11:10:01;12.50;99.90
16995;DHT22;8614;48.522;9.206;2022-11-15T11:12:31;12.50;99.90
16995;DHT22;8614;48.522;9.206;2022-11-15T11:14:59;12.50;99.90
16995;DHT22;8614;48.522;9.206;2022-11-15T11:17:39;12.50;99.90
16995;DHT22;8614;48.522;9.206;2022-11-15T11:20:18;12.50;99.90
16995;DHT22;8614;48.522;9.206;2022-11-15T11:22:57;12.50;99.90
16995;DHT22;8614;48.522;9.206;2022-11-15T11:25:33;12.50;99.90
16995;DHT22;8614;48.522;9.206;2022-11-15T11:28:18;12.50;99.90
16995;DHT22;8614;48.522;9.206;2022-11-15T11:30:58;12.60;99.90
16995;DHT22;8614;48.522;9.206;2022-11-15T11:33:31;12.60;99.90
16995;DHT22;8614;48.522;9.206;2022-11-15T11:36:10;12.60;99.90
16995;DHT22;8614;48.522;9.206;2022-11-15T11:38:47;12.60;99.90
16995;DHT22;8614;48.522;9.206;2022-11-15T11:41:24;12.70;99.90
16995;DHT22;8614;48.522;9.206;2022-11-15T11:44:03;12.80;99.90
16995;DHT22;8614;48.522;9.206;2022-11-15T11:46:44;12.80;99.90
16995;DHT22;8614;48.522;9.206;2022-11-15T11:49:19;12.80;99.90
16995;DHT22;8614;48.522;9.206;2022-11-15T11:51:50;12.90;99.90
16995;DHT22;8614;48.522;9.206;2022-11-15T11:54:22;13.00;99.90
16995;DHT22;8614;48.522;9.206;2022-11-15T11:56:50;13.10;99.90
16995;DHT22;8614;48.522;9.206;2022-11-15T11:59:25;13.10;99.90
16995;DHT22;8614;48.522;9.206;2022-11-15T12:01:55;13.10;99.90
16995;DHT22;8614;48.522;9.206;2022-11-15T12:04:30;13.20;99.90
16995;DHT22;8614;48.522;9.206;2022-11-15T12:06:59;13.10;99.90
16995;DHT22;8614;48.522;9.206;2022-11-15T12:09:32;13.10;99.90
16995;DHT22;8614;48.522;9.206;2022-11-15T12:12:05;13.10;99.90
16995;DHT22;8614;48.522;9.206;2022-11-15T12:14:40;13.00;99.90
16995;DHT22;8614;48.522;9.206;2022-11-15T12:17:10;13.00;99.90
16995;DHT22;8614;48.522;9.206;2022-11-15T12:19:39;13.00;99.90
16995;DHT22;8614;48.522;9.206;2022-11-15T12:22:13;13.10;99.90
16995;DHT22;8614;48.522;9.206;2022-11-15T12:24:46;13.10;99.90
16995;DHT22;8614;48.522;9.206;2022-11-15T12:27:17;13.10;99.90
16995;DHT22;8614;48.522;9.206;2022-11-15T12:29:48;13.10;99.90
16995;DHT22;8614;48.522;9.206;2022-11-15T12:32:26;13.00;99.90
16995;DHT22;8614;48.522;9.206;2022-11-15T12:34:57;13.00;99.90
16995;DHT22;8614;48.522;9.206;2022-11-15T12:40:33;13.10;99.90
16995;DHT22;8614;48.522;9.206;2022-11-15T12:45:50;13.10;99.90
16995;DHT22;8614;48.522;9.206;2022-11-15T12:57:39;13.20;99.90
16995;DHT22;8614;48.522;9.206;2022-11-15T13:03:27;13.40;99.90
16995;DHT22;8614;48.522;9.206;2022-11-15T13:08:41;13.40;99.90
16995;DHT22;8614;48.522;9.206;2022-11-15T13:11:45;13.50;99.90
16995;DHT22;8614;48.522;9.206;2022-11-15T13:14:40;13.50;99.90
16995;DHT22;8614;48.522;9.206;2022-11-15T13:17:32;13.50;99.90
16995;DHT22;8614;48.522;9.206;2022-11-15T13:20:18;13.50;99.90
16995;DHT22;8614;48.522;9.206;2022-11-15T13:22:48;13.50;99.90
16995;DHT22;8614;48.522;9.206;2022-11-15T13:25:23;13.60;99.90
16995;DHT22;8614;48.522;9.206;2022-11-15T13:27:54;13.60;99.90
16995;DHT22;8614;48.522;9.206;2022-11-15T13:30:26;13.60;99.90
16995;DHT22;8614;48.522;9.206;2022-11-15T13:32:53;13.60;99.90
16995;DHT22;8614;48.522;9.206;2022-11-15T13:35:23;13.60;99.90
16995;DHT22;8614;48.522;9.206;2022-11-15T13:37:52;13.60;99.90
16995;DHT22;8614;48.522;9.206;2022-11-15T13:40:23;13.60;99.90
16995;DHT22;8614;48.522;9.206;2022-11-15T13:42:50;13.50;99.90
16995;DHT22;8614;48.522;9.206;2022-11-15T13:45:18;13.40;99.90
16995;DHT22;8614;48.522;9.206;2022-11-15T13:47:53;13.30;99.90
16995;DHT22;8614;48.522;9.206;2022-11-15T13:50:24;13.20;99.90
16995;DHT22;8614;48.522;9.206;2022-11-15T13:53:05;13.10;99.90
16995;DHT22;8614;48.522;9.206;2022-11-15T13:55:33;13.00;99.90
16995;DHT22;8614;48.522;9.206;2022-11-15T13:58:02;13.00;99.90
16995;DHT22;8614;48.522;9.206;2022-11-15T14:00:35;12.90;99.90
16995;DHT22;8614;48.522;9.206;2022-11-15T14:03:18;12.90;99.90
16995;DHT22;8614;48.522;9.206;2022-11-15T14:06:02;12.90;99.90
16995;DHT22;8614;48.522;9.206;2022-11-15T14:08:30;12.80;99.90
16995;DHT22;8614;48.522;9.206;2022-11-15T14:11:15;12.80;99.90
16995;DHT22;8614;48.522;9.206;2022-11-15T14:13:57;12.70;99.90
16995;DHT22;8614;48.522;9.206;2022-11-15T14:16:33;12.70;99.90
16995;DHT22;8614;48.522;9.206;2022-11-15T14:19:00;12.70;99.90
16995;DHT22;8614;48.522;9.206;2022-11-15T14:21:27;12.70;99.90
16995;DHT22;8614;48.522;9.206;2022-11-15T14:24:17;12.70;99.90
16995;DHT22;8614;48.522;9.206;2022-11-15T14:26:47;12.70;99.90
16995;DHT22;8614;48.522;9.206;2022-11-15T14:29:24;12.60;99.90
16995;DHT22;8614;48.522;9.206;2022-11-15T14:31:51;12.60;99.90
16995;DHT22;8614;48.522;9.206;2022-11-15T14:34:18;12.60;99.90
16995;DHT22;8614;48.522;9.206;2022-11-15T14:36:47;12.60;99.90
16995;DHT22;8614;48.522;9.206;2022-11-15T14:39:14;12.50;99.90
16995;DHT22;8614;48.522;9.206;2022-11-15T14:41:42;12.50;99.90
16995;DHT22;8614;48.522;9.206;2022-11-15T14:44:10;12.40;99.90
16995;DHT22;8614;48.522;9.206;2022-11-15T14:46:37;12.40;99.90
16995;DHT22;8614;48.522;9.206;2022-11-15T14:49:04;12.30;99.90
16995;DHT22;8614;48.522;9.206;2022-11-15T14:51:31;12.30;99.90
16995;DHT22;8614;48.522;9.206;2022-11-15T14:53:58;12.30;99.90
16995;DHT22;8614;48.522;9.206;2022-11-15T14:56:25;12.20;99.90
16995;DHT22;8614;48.522;9.206;2022-11-15T14:58:54;12.20;99.90
16995;DHT22;8614;48.522;9.206;2022-11-15T15:01:24;12.20;99.90
16995;DHT22;8614;48.522;9.206;2022-11-15T15:03:52;12.20;99.90
16995;DHT22;8614;48.522;9.206;2022-11-15T15:06:21;12.10;99.90
16995;DHT22;8614;48.522;9.206;2022-11-15T15:08:48;12.10;99.90
16995;DHT22;8614;48.522;9.206;2022-11-15T15:11:19;12.00;99.90
16995;DHT22;8614;48.522;9.206;2022-11-15T15:13:47;12.00;99.90
16995;DHT22;8614;48.522;9.206;2022-11-15T15:16:15;11.90;99.90
16995;DHT22;8614;48.522;9.206;2022-11-15T15:18:42;11.80;99.90
16995;DHT22;8614;48.522;9.206;2022-11-15T15:21:19;11.80;99.90
16995;DHT22;8614;48.522;9.206;2022-11-15T15:23:47;11.70;99.90
16995;DHT22;8614;48.522;9.206;2022-11-15T15:26:13;11.60;99.90
16995;DHT22;8614;48.522;9.206;2022-11-15T15:28:43;11.60;99.90
16995;DHT22;8614;48.522;9.206;2022-11-15T15:31:11;11.50;99.90
16995;DHT22;8614;48.522;9.206;2022-11-15T15:33:39;11.50;99.90
16995;DHT22;8614;48.522;9.206;2022-11-15T15:36:10;11.40;99.90
16995;DHT22;8614;48.522;9.206;2022-11-15T15:38:37;11.40;99.90
16995;DHT22;8614;48.522;9.206;2022-11-15T15:41:10;11.40;99.90
16995;DHT22;8614;48.522;9.206;2022-11-15T15:43:36;11.30;99.90
16995;DHT22;8614;48.522;9.206;2022-11-15T15:46:04;11.30;99.90
16995;DHT22;8614;48.522;9.206;2022-11-15T15:48:34;11.30;99.90
16995;DHT22;8614;48.522;9.206;2022-11-15T15:51:04;11.20;99.90
16995;DHT22;8614;48.522;9.206;2022-11-15T15:53:31;11.20;99.90
16995;DHT22;8614;48.522;9.206;2022-11-15T15:55:58;11.20;99.90
16995;DHT22;8614;48.522;9.206;2022-11-15T15:58:25;11.20;99.90
16995;DHT22;8614;48.522;9.206;2022-11-15T16:00:52;11.10;99.90
16995;DHT22;8614;48.522;9.206;2022-11-15T16:03:19;11.10;99.90
16995;DHT22;8614;48.522;9.206;2022-11-15T16:05:46;11.10;99.90
16995;DHT22;8614;48.522;9.206;2022-11-15T16:08:18;11.10;99.90
16995;DHT22;8614;48.522;9.206;2022-11-15T16:10:46;11.10;99.90
16995;DHT22;8614;48.522;9.206;2022-11-15T16:13:13;11.00;99.90
16995;DHT22;8614;48.522;9.206;2022-11-15T16:15:41;11.00;99.90
16995;DHT22;8614;48.522;9.206;2022-11-15T16:18:15;11.00;99.90
16995;DHT22;8614;48.522;9.206;2022-11-15T16:20:43;11.00;99.90
16995;DHT22;8614;48.522;9.206;2022-11-15T16:23:12;11.00;99.90
16995;DHT22;8614;48.522;9.206;2022-11-15T16:25:44;11.00;99.90
16995;DHT22;8614;48.522;9.206;2022-11-15T16:28:16;11.00;99.90
16995;DHT22;8614;48.522;9.206;2022-11-15T16:30:44;11.00;99.90
16995;DHT22;8614;48.522;9.206;2022-11-15T16:33:11;11.00;99.90
16995;DHT22;8614;48.522;9.206;2022-11-15T16:35:38;11.00;99.90
16995;DHT22;8614;48.522;9.206;2022-11-15T16:38:04;11.10;99.90
16995;DHT22;8614;48.522;9.206;2022-11-15T16:40:38;11.10;99.90
16995;DHT22;8614;48.522;9.206;2022-11-15T16:43:16;11.20;99.90
16995;DHT22;8614;48.522;9.206;2022-11-15T16:45:56;11.20;99.90
16995;DHT22;8614;48.522;9.206;2022-11-15T16:48:37;11.20;99.90
16995;DHT22;8614;48.522;9.206;2022-11-15T16:55:42;11.30;99.90
16995;DHT22;8614;48.522;9.206;2022-11-15T16:58:08;11.40;99.90
16995;DHT22;8614;48.522;9.206;2022-11-15T17:00:40;11.40;99.90
16995;DHT22;8614;48.522;9.206;2022-11-15T17:03:10;11.40;99.90
16995;DHT22;8614;48.522;9.206;2022-11-15T17:06:00;11.50;99.90
16995;DHT22;8614;48.522;9.206;2022-11-15T17:08:32;11.50;99.90
16995;DHT22;8614;48.522;9.206;2022-11-15T17:10:58;11.60;99.90
16995;DHT22;8614;48.522;9.206;2022-11-15T17:13:26;11.60;99.90
16995;DHT22;8614;48.522;9.206;2022-11-15T17:16:04;11.60;99.90
16995;DHT22;8614;48.522;9.206;2022-11-15T17:19:11;11.70;99.90
16995;DHT22;8614;48.522;9.206;2022-11-15T17:21:40;11.70;99.90
16995;DHT22;8614;48.522;9.206;2022-11-15T17:24:07;11.70;99.90
16995;DHT22;8614;48.522;9.206;2022-11-15T17:26:35;11.70;99.90
16995;DHT22;8614;48.522;9.206;2022-11-15T17:29:03;11.70;99.90
16995;DHT22;8614;48.522;9.206;2022-11-15T17:31:34;11.70;99.90
16995;DHT22;8614;48.522;9.206;2022-11-15T17:34:02;11.70;99.90
16995;DHT22;8614;48.522;9.206;2022-11-15T17:36:29;11.70;99.90
16995;DHT22;8614;48.522;9.206;2022-11-15T17:38:56;11.70;99.90
16995;DHT22;8614;48.522;9.206;2022-11-15T17:41:24;11.60;99.90
16995;DHT22;8614;48.522;9.206;2022-11-15T17:43:51;11.60;99.90
16995;DHT22;8614;48.522;9.206;2022-11-15T17:46:26;11.60;99.90
16995;DHT22;8614;48.522;9.206;2022-11-15T17:49:02;11.50;99.90
16995;DHT22;8614;48.522;9.206;2022-11-15T17:51:31;11.50;99.90
16995;DHT22;8614;48.522;9.206;2022-11-15T17:54:03;11.50;99.90
16995;DHT22;8614;48.522;9.206;2022-11-15T17:57:23;11.50;99.90
16995;DHT22;8614;48.522;9.206;2022-11-15T18:08:40;11.50;99.90
16995;DHT22;8614;48.522;9.206;2022-11-15T18:11:49;11.50;99.90
16995;DHT22;8614;48.522;9.206;2022-11-15T18:14:18;11.50;99.90
16995;DHT22;8614;48.522;9.206;2022-11-15T18:16:45;11.40;99.90
16995;DHT22;8614;48.522;9.206;2022-11-15T18:19:14;11.40;99.90
16995;DHT22;8614;48.522;9.206;2022-11-15T18:21:43;11.50;99.90
16995;DHT22;8614;48.522;9.206;2022-11-15T18:24:25;11.50;99.90
16995;DHT22;8614;48.522;9.206;2022-11-15T18:26:52;11.50;99.90
16995;DHT22;8614;48.522;9.206;2022-11-15T18:29:19;11.50;99.90
16995;DHT22;8614;48.522;9.206;2022-11-15T18:31:49;11.50;99.90
16995;DHT22;8614;48.522;9.206;2022-11-15T18:34:20;11.50;99.90
16995;DHT22;8614;48.522;9.206;2022-11-15T18:36:49;11.40;99.90
16995;DHT22;8614;48.522;9.206;2022-11-15T18:39:15;11.40;99.90
16995;DHT22;8614;48.522;9.206;2022-11-15T18:41:44;11.40;99.90
16995;DHT22;8614;48.522;9.206;2022-11-15T18:44:13;11.40;99.90
16995;DHT22;8614;48.522;9.206;2022-11-15T18:46:41;11.40;99.90
16995;DHT22;8614;48.522;9.206;2022-11-15T18:49:10;11.40;99.90
16995;DHT22;8614;48.522;9.206;2022-11-15T18:51:38;11.40;99.90
16995;DHT22;8614;48.522;9.206;2022-11-15T18:54:07;11.40;99.90
16995;DHT22;8614;48.522;9.206;2022-11-15T18:56:35;11.40;99.90
16995;DHT22;8614;48.522;9.206;2022-11-15T18:59:04;11.40;99.90
16995;DHT22;8614;48.522;9.206;2022-11-15T19:01:32;11.40;99.90
16995;DHT22;8614;48.522;9.206;2022-11-15T19:04:05;11.40;99.90
16995;DHT22;8614;48.522;9.206;2022-11-15T19:06:35;11.40;99.90
16995;DHT22;8614;48.522;9.206;2022-11-15T19:09:02;11.40;99.90
16995;DHT22;8614;48.522;9.206;2022-11-15T19:11:32;11.40;99.90
16995;DHT22;8614;48.522;9.206;2022-11-15T19:14:01;11.50;99.90
16995;DHT22;8614;48.522;9.206;2022-11-15T19:16:33;11.50;99.90
16995;DHT22;8614;48.522;9.206;2022-11-15T19:19:02;11.50;99.90
16995;DHT22;8614;48.522;9.206;2022-11-15T19:21:29;11.50;99.90
16995;DHT22;8614;48.522;9.206;2022-11-15T19:23:57;11.50;99.90
16995;DHT22;8614;48.522;9.206;2022-11-15T19:26:25;11.50;99.90
16995;DHT22;8614;48.522;9.206;2022-11-15T19:28:53;11.50;99.90
16995;DHT22;8614;48.522;9.206;2022-11-15T19:31:21;11.50;99.90
16995;DHT22;8614;48.522;9.206;2022-11-15T19:33:51;11.50;99.90
16995;DHT22;8614;48.522;9.206;2022-11-15T19:36:20;11.40;99.90
16995;DHT22;8614;48.522;9.206;2022-11-15T19:38:53;11.50;99.90
16995;DHT22;8614;48.522;9.206;2022-11-15T19:41:21;11.50;99.90
16995;DHT22;8614;48.522;9.206;2022-11-15T19:43:50;11.50;99.90
16995;DHT22;8614;48.522;9.206;2022-11-15T19:46:18;11.50;99.90
16995;DHT22;8614;48.522;9.206;2022-11-15T19:48:46;11.50;99.90
16995;DHT22;8614;48.522;9.206;2022-11-15T19:51:16;11.50;99.90
16995;DHT22;8614;48.522;9.206;2022-11-15T19:53:46;11.40;99.90
16995;DHT22;8614;48.522;9.206;2022-11-15T19:56:14;11.40;99.90
16995;DHT22;8614;48.522;9.206;2022-11-15T19:58:42;11.50;99.90
16995;DHT22;8614;48.522;9.206;2022-11-15T20:01:13;11.50;99.90
16995;DHT22;8614;48.522;9.206;2022-11-15T20:03:41;11.50;99.90
16995;DHT22;8614;48.522;9.206;2022-11-15T20:06:10;11.50;99.90
16995;DHT22;8614;48.522;9.206;2022-11-15T20:08:39;11.50;99.90
16995;DHT22;8614;48.522;9.206;2022-11-15T20:11:06;11.40;99.90
16995;DHT22;8614;48.522;9.206;2022-11-15T20:13:32;11.40;99.90
16995;DHT22;8614;48.522;9.206;2022-11-15T20:15:59;11.40;99.90
16995;DHT22;8614;48.522;9.206;2022-11-15T20:18:28;11.40;99.90
16995;DHT22;8614;48.522;9.206;2022-11-15T20:20:55;11.30;99.90
16995;DHT22;8614;48.522;9.206;2022-11-15T20:23:24;11.30;99.90
16995;DHT22;8614;48.522;9.206;2022-11-15T20:25:52;11.30;99.90
16995;DHT22;8614;48.522;9.206;2022-11-15T20:28:22;11.20;99.90
16995;DHT22;8614;48.522;9.206;2022-11-15T20:30:51;11.20;99.90
16995;DHT22;8614;48.522;9.206;2022-11-15T20:33:19;11.10;99.90
16995;DHT22;8614;48.522;9.206;2022-11-15T20:35:47;11.10;99.90
16995;DHT22;8614;48.522;9.206;2022-11-15T20:38:14;11.00;99.90